sensor_id;sensor_type;location;lat;lon;timestamp;pressure;altitude;pressure_sealevel;temperature;humidity
49813;BME280;35706;52.100;5.056;2023-02-17T00:00:29;101845.88;;;9.46;100.00
49813;BME280;35706;52.100;5.056;2023-02-17T00:01:31;101851.88;;;9.48;100.00
49813;BME280;35706;52.100;5.056;2023-02-17T00:02:33;101842.34;;;9.47;100.00
49813;BME280;35706;52.100;5.056;2023-02-17T00:03:34;101841.50;;;9.46;100.00
49813;BME280;35706;52.100;5.056;2023-02-17T00:04:34;101838.13;;;9.44;100.00
49813;BME280;35706;52.100;5.056;2023-02-17T00:05:37;101838.75;;;9.48;100.00
49813;BME280;35706;52.100;5.056;2023-02-17T00:06:38;101831.84;;;9.47;100.00
49813;BME280;35706;52.100;5.056;2023-02-17T00:07:41;101849.38;;;9.46;100.00
49813;BME280;35706;52.100;5.056;2023-02-17T00:08:41;101832.75;;;9.46;100.00
49813;BME280;35706;52.100;5.056;2023-02-17T00:09:42;101828.25;;;9.48;100.00
49813;BME280;35706;52.100;5.056;2023-02-17T00:10:42;101833.50;;;9.48;100.00
49813;BME280;35706;52.100;5.056;2023-02-17T00:11:43;101836.84;;;9.50;100.00
49813;BME280;35706;52.100;5.056;2023-02-17T00:12:43;101842.25;;;9.48;100.00
49813;BME280;35706;52.100;5.056;2023-02-17T00:13:44;101836.84;;;9.50;100.00
49813;BME280;35706;52.100;5.056;2023-02-17T00:14:44;101833.00;;;9.43;100.00
49813;BME280;35706;52.100;5.056;2023-02-17T00:15:45;101842.53;;;9.44;100.00
49813;BME280;35706;52.100;5.056;2023-02-17T00:16:45;101831.00;;;9.46;100.00
49813;BME280;35706;52.100;5.056;2023-02-17T00:17:45;101833.00;;;9.43;100.00
49813;BME280;35706;52.100;5.056;2023-02-17T00:18:46;101833.72;;;9.45;100.00
49813;BME280;35706;52.100;5.056;2023-02-17T00:19:46;101835.38;;;9.46;100.00
49813;BME280;35706;52.100;5.056;2023-02-17T00:20:46;101842.34;;;9.47;100.00
49813;BME280;35706;52.100;5.056;2023-02-17T00:21:47;101834.56;;;9.45;100.00
49813;BME280;35706;52.100;5.056;2023-02-17T00:22:48;101834.56;;;9.45;100.00
49813;BME280;35706;52.100;5.056;2023-02-17T00:23:48;101839.16;;;9.42;100.00
49813;BME280;35706;52.100;5.056;2023-02-17T00:24:49;101831.84;;;9.47;100.00
49813;BME280;35706;52.100;5.056;2023-02-17T00:25:49;101838.00;;;9.46;100.00
49813;BME280;35706;52.100;5.056;2023-02-17T00:26:50;101837.09;;;9.47;100.00
49813;BME280;35706;52.100;5.056;2023-02-17T00:27:50;101834.47;;;9.47;100.00
49813;BME280;35706;52.100;5.056;2023-02-17T00:28:50;101825.84;;;9.45;100.00
49813;BME280;35706;52.100;5.056;2023-02-17T00:29:51;101830.03;;;9.47;100.00
49813;BME280;35706;52.100;5.056;2023-02-17T00:30:51;101832.75;;;9.46;100.00
49813;BME280;35706;52.100;5.056;2023-02-17T00:31:52;101820.59;;;9.45;100.00
49813;BME280;35706;52.100;5.056;2023-02-17T00:32:53;101827.00;;;9.41;100.00
49813;BME280;35706;52.100;5.056;2023-02-17T00:33:54;101817.03;;;9.46;100.00
49813;BME280;35706;52.100;5.056;2023-02-17T00:34:55;101818.91;;;9.44;100.00
49813;BME280;35706;52.100;5.056;2023-02-17T00:35:57;101822.25;;;9.46;100.00
49813;BME280;35706;52.100;5.056;2023-02-17T00:36:57;101824.16;;;9.44;100.00
49813;BME280;35706;52.100;5.056;2023-02-17T00:38:00;101834.66;;;9.44;100.00
49813;BME280;35706;52.100;5.056;2023-02-17T00:39:01;101834.78;;;9.42;100.00
49813;BME280;35706;52.100;5.056;2023-02-17T00:40:04;101833.19;;;9.40;100.00
49813;BME280;35706;52.100;5.056;2023-02-17T00:41:10;101823.41;;;9.42;100.00
49813;BME280;35706;52.100;5.056;2023-02-17T00:42:11;101844.41;;;9.42;100.00
49813;BME280;35706;52.100;5.056;2023-02-17T00:43:11;101840.94;;;9.41;100.00
49813;BME280;35706;52.100;5.056;2023-02-17T00:44:21;101835.59;;;9.43;100.00
49813;BME280;35706;52.100;5.056;2023-02-17T00:45:25;101834.97;;;9.39;100.00
49813;BME280;35706;52.100;5.056;2023-02-17T00:46:28;101825.44;;;9.38;100.00
49813;BME280;35706;52.100;5.056;2023-02-17T00:47:28;101827.41;;;9.34;100.00
49813;BME280;35706;52.100;5.056;2023-02-17T00:48:29;101825.75;;;9.33;100.00
49813;BME280;35706;52.100;5.056;2023-02-17T00:49:30;101839.78;;;9.32;100.00
49813;BME280;35706;52.100;5.056;2023-02-17T00:50:30;101832.25;;;9.28;100.00
49813;BME280;35706;52.100;5.056;2023-02-17T00:51:30;101830.34;;;9.30;100.00
49813;BME280;35706;52.100;5.056;2023-02-17T00:52:31;101816.59;;;9.26;100.00
49813;BME280;35706;52.100;5.056;2023-02-17T00:53:31;101819.31;;;9.25;100.00
49813;BME280;35706;52.100;5.056;2023-02-17T00:54:32;101814.94;;;9.25;100.00
49813;BME280;35706;52.100;5.056;2023-02-17T00:55:32;101814.38;;;9.20;100.00
49813;BME280;35706;52.100;5.056;2023-02-17T00:56:32;101819.19;;;9.13;100.00
49813;BME280;35706;52.100;5.056;2023-02-17T00:57:33;101812.47;;;9.09;100.00
49813;BME280;35706;52.100;5.056;2023-02-17T00:58:34;101820.75;;;9.03;100.00
49813;BME280;35706;52.100;5.056;2023-02-17T00:59:34;101825.16;;;9.03;100.00
49813;BME280;35706;52.100;5.056;2023-02-17T01:00:35;101831.38;;;9.02;100.00
49813;BME280;35706;52.100;5.056;2023-02-17T01:01:36;101819.94;;;9.03;100.00
49813;BME280;35706;52.100;5.056;2023-02-17T01:02:36;101829.03;;;8.97;100.00
49813;BME280;35706;52.100;5.056;2023-02-17T01:03:37;101822.94;;;8.96;100.00
49813;BME280;35706;52.100;5.056;2023-02-17T01:04:39;101828.00;;;9.00;100.00
49813;BME280;35706;52.100;5.056;2023-02-17T01:05:41;101828.84;;;9.00;100.00
49813;BME280;35706;52.100;5.056;2023-02-17T01:06:42;101827.38;;;8.96;100.00
49813;BME280;35706;52.100;5.056;2023-02-17T01:07:42;101833.44;;;8.96;100.00
49813;BME280;35706;52.100;5.056;2023-02-17T01:08:43;101833.66;;;8.93;100.00
49813;BME280;35706;52.100;5.056;2023-02-17T01:09:43;101824.84;;;8.94;100.00
49813;BME280;35706;52.100;5.056;2023-02-17T01:10:45;101816.13;;;8.94;100.00
49813;BME280;35706;52.100;5.056;2023-02-17T01:11:46;101809.31;;;8.91;100.00
49813;BME280;35706;52.100;5.056;2023-02-17T01:12:46;101823.16;;;8.93;100.00
49813;BME280;35706;52.100;5.056;2023-02-17T01:13:47;101820.53;;;8.93;100.00
49813;BME280;35706;52.100;5.056;2023-02-17T01:14:48;101825.78;;;8.93;100.00
49813;BME280;35706;52.100;5.056;2023-02-17T01:15:51;101830.06;;;8.94;100.00
49813;BME280;35706;52.100;5.056;2023-02-17T01:16:51;101823.16;;;8.93;100.00
49813;BME280;35706;52.100;5.056;2023-02-17T01:17:52;101823.25;;;8.92;100.00
49813;BME280;35706;52.100;5.056;2023-02-17T01:18:53;101823.91;;;8.95;100.00
49813;BME280;35706;52.100;5.056;2023-02-17T01:19:53;101818.66;;;8.95;100.00
49813;BME280;35706;52.100;5.056;2023-02-17T01:20:53;101829.44;;;8.91;100.00
49813;BME280;35706;52.100;5.056;2023-02-17T01:21:54;101825.66;;;8.95;100.00
49813;BME280;35706;52.100;5.056;2023-02-17T01:22:54;101825.78;;;8.93;100.00
49813;BME280;35706;52.100;5.056;2023-02-17T01:23:56;101824.75;;;8.96;100.00
49813;BME280;35706;52.100;5.056;2023-02-17T01:24:57;101829.97;;;8.96;100.00
49813;BME280;35706;52.100;5.056;2023-02-17T01:25:57;101823.16;;;8.93;100.00
49813;BME280;35706;52.100;5.056;2023-02-17T01:26:58;101826.41;;;8.97;100.00
49813;BME280;35706;52.100;5.056;2023-02-17T01:27:58;101822.22;;;8.94;100.00
49813;BME280;35706;52.100;5.056;2023-02-17T01:28:58;101833.84;;;8.90;100.00
49813;BME280;35706;52.100;5.056;2023-02-17T01:29:59;101835.81;;;8.87;100.00
49813;BME280;35706;52.100;5.056;2023-02-17T01:31:05;101826.50;;;8.83;100.00
49813;BME280;35706;52.100;5.056;2023-02-17T01:32:05;101842.41;;;8.80;100.00
49813;BME280;35706;52.100;5.056;2023-02-17T01:33:05;101829.22;;;8.81;100.00
49813;BME280;35706;52.100;5.056;2023-02-17T01:34:06;101833.72;;;8.79;100.00
49813;BME280;35706;52.100;5.056;2023-02-17T01:35:06;101824.16;;;8.78;100.00
49813;BME280;35706;52.100;5.056;2023-02-17T01:36:11;101836.63;;;8.74;100.00
49813;BME280;35706;52.100;5.056;2023-02-17T01:37:11;101834.75;;;8.76;100.00
49813;BME280;35706;52.100;5.056;2023-02-17T01:38:19;101825.28;;;8.74;100.00
49813;BME280;35706;52.100;5.056;2023-02-17T01:39:19;101816.19;;;8.80;100.00
49813;BME280;35706;52.100;5.056;2023-02-17T01:40:20;101804.88;;;8.79;100.00
49813;BME280;35706;52.100;5.056;2023-02-17T01:41:23;101815.53;;;8.76;100.00
49813;BME280;35706;52.100;5.056;2023-02-17T01:42:26;101805.06;;;8.76;100.00
49813;BME280;35706;52.100;5.056;2023-02-17T01:43:27;101813.88;;;8.75;100.00
49813;BME280;35706;52.100;5.056;2023-02-17T01:44:31;101824.47;;;8.73;100.00
49813;BME280;35706;52.100;5.056;2023-02-17T01:45:37;101820.16;;;8.72;100.00
49813;BME280;35706;52.100;5.056;2023-02-17T01:46:43;101850.75;;;8.72;100.00
49813;BME280;35706;52.100;5.056;2023-02-17T01:48:52;101825.41;;;8.72;100.00
49813;BME280;35706;52.100;5.056;2023-02-17T01:49:53;101827.81;;;8.75;100.00
49813;BME280;35706;52.100;5.056;2023-02-17T01:51:01;101822.06;;;8.70;100.00
49813;BME280;35706;52.100;5.056;2023-02-17T01:52:19;101827.38;;;8.69;100.00
49813;BME280;35706;52.100;5.056;2023-02-17T01:53:32;101820.34;;;8.69;100.00
49813;BME280;35706;52.100;5.056;2023-02-17T01:54:40;101817.28;;;8.63;100.00
49813;BME280;35706;52.100;5.056;2023-02-17T01:55:41;101827.69;;;8.64;100.00
49813;BME280;35706;52.100;5.056;2023-02-17T01:56:43;101822.34;;;8.66;100.00
49813;BME280;35706;52.100;5.056;2023-02-17T01:57:46;101821.69;;;8.62;100.00
49813;BME280;35706;52.100;5.056;2023-02-17T01:58:55;101822.75;;;8.60;100.00
49813;BME280;35706;52.100;5.056;2023-02-17T01:59:57;101807.94;;;8.59;100.00
49813;BME280;35706;52.100;5.056;2023-02-17T02:01:00;101811.22;;;8.62;100.00
49813;BME280;35706;52.100;5.056;2023-02-17T02:02:03;101806.81;;;8.63;100.00
49813;BME280;35706;52.100;5.056;2023-02-17T02:03:06;101809.66;;;8.60;100.00
49813;BME280;35706;52.100;5.056;2023-02-17T02:04:09;101803.34;;;8.62;100.00
49813;BME280;35706;52.100;5.056;2023-02-17T02:05:10;101812.78;;;8.65;100.00
49813;BME280;35706;52.100;5.056;2023-02-17T02:06:15;101796.53;;;8.60;100.00
49813;BME280;35706;52.100;5.056;2023-02-17T02:07:28;101800.66;;;8.64;100.00
49813;BME280;35706;52.100;5.056;2023-02-17T02:08:40;101806.91;;;8.61;100.00
49813;BME280;35706;52.100;5.056;2023-02-17T02:09:47;101803.16;;;8.65;100.00
49813;BME280;35706;52.100;5.056;2023-02-17T02:10:49;101807.75;;;8.62;100.00
49813;BME280;35706;52.100;5.056;2023-02-17T02:11:50;101791.00;;;8.64;100.00
49813;BME280;35706;52.100;5.056;2023-02-17T02:12:51;101798.78;;;8.66;100.00
49813;BME280;35706;52.100;5.056;2023-02-17T02:13:51;101783.53;;;8.58;100.00
49813;BME280;35706;52.100;5.056;2023-02-17T02:14:55;101785.19;;;8.59;100.00
49813;BME280;35706;52.100;5.056;2023-02-17T02:16:05;101782.41;;;8.62;100.00
49813;BME280;35706;52.100;5.056;2023-02-17T02:17:17;101772.75;;;8.63;100.00
49813;BME280;35706;52.100;5.056;2023-02-17T02:27:49;101764.13;;;8.61;100.00
49813;BME280;35706;52.100;5.056;2023-02-17T02:30:44;101757.03;;;8.63;100.00
49813;BME280;35706;52.100;5.056;2023-02-17T02:33:39;101774.63;;;8.61;100.00
49813;BME280;35706;52.100;5.056;2023-02-17T02:34:46;101766.13;;;8.57;100.00
49813;BME280;35706;52.100;5.056;2023-02-17T02:36:05;101768.53;;;8.60;100.00
49813;BME280;35706;52.100;5.056;2023-02-17T02:37:32;101758.72;;;8.64;100.00
49813;BME280;35706;52.100;5.056;2023-02-17T02:38:58;101755.22;;;8.63;100.00
49813;BME280;35706;52.100;5.056;2023-02-17T02:40:13;101750.00;;;8.63;100.00
49813;BME280;35706;52.100;5.056;2023-02-17T02:41:22;101753.34;;;8.65;100.00
49813;BME280;35706;52.100;5.056;2023-02-17T02:42:24;101746.53;;;8.63;100.00
49813;BME280;35706;52.100;5.056;2023-02-17T02:43:25;101747.28;;;8.65;100.00
49813;BME280;35706;52.100;5.056;2023-02-17T02:44:25;101766.97;;;8.58;100.00
49813;BME280;35706;52.100;5.056;2023-02-17T02:45:26;101754.69;;;8.58;100.00
49813;BME280;35706;52.100;5.056;2023-02-17T02:46:26;101764.88;;;8.63;100.00
49813;BME280;35706;52.100;5.056;2023-02-17T02:48:42;101743.91;;;8.63;100.00
49813;BME280;35706;52.100;5.056;2023-02-17T02:49:43;101745.69;;;8.62;100.00
49813;BME280;35706;52.100;5.056;2023-02-17T02:50:47;101743.72;;;8.66;100.00
49813;BME280;35706;52.100;5.056;2023-02-17T02:54:11;101745.59;;;8.64;100.00
49813;BME280;35706;52.100;5.056;2023-02-17T02:55:23;101758.72;;;8.64;100.00
49813;BME280;35706;52.100;5.056;2023-02-17T03:03:11;101760.38;;;8.65;100.00
49813;BME280;35706;52.100;5.056;2023-02-17T03:04:29;101737.63;;;8.65;100.00
49813;BME280;35706;52.100;5.056;2023-02-17T03:06:05;101748.97;;;8.66;100.00
49813;BME280;35706;52.100;5.056;2023-02-17T03:07:15;101759.16;;;8.70;100.00
49813;BME280;35706;52.100;5.056;2023-02-17T03:08:35;101744.66;;;8.65;100.00
49813;BME280;35706;52.100;5.056;2023-02-17T03:09:37;101749.16;;;8.63;100.00
49813;BME280;35706;52.100;5.056;2023-02-17T03:10:50;101747.50;;;8.62;100.00
49813;BME280;35706;52.100;5.056;2023-02-17T03:11:52;101756.38;;;8.59;100.00
49813;BME280;35706;52.100;5.056;2023-02-17T03:12:54;101748.41;;;8.61;100.00
49813;BME280;35706;52.100;5.056;2023-02-17T03:13:59;101754.41;;;8.63;100.00
49813;BME280;35706;52.100;5.056;2023-02-17T03:15:04;101754.69;;;8.58;100.00
49813;BME280;35706;52.100;5.056;2023-02-17T03:16:07;101729.25;;;8.60;100.00
49813;BME280;35706;52.100;5.056;2023-02-17T03:17:08;101727.84;;;8.54;100.00
49813;BME280;35706;52.100;5.056;2023-02-17T03:18:08;101729.63;;;8.54;100.00
49813;BME280;35706;52.100;5.056;2023-02-17T03:19:10;101730.38;;;8.56;100.00
49813;BME280;35706;52.100;5.056;2023-02-17T03:20:11;101726.63;;;8.60;100.00
49813;BME280;35706;52.100;5.056;2023-02-17T03:21:15;101723.25;;;8.58;100.00
49813;BME280;35706;52.100;5.056;2023-02-17T03:22:24;101725.22;;;8.54;100.00
49813;BME280;35706;52.100;5.056;2023-02-17T03:23:27;101711.38;;;8.52;100.00
49813;BME280;35706;52.100;5.056;2023-02-17T03:24:27;101715.50;;;8.56;100.00
49813;BME280;35706;52.100;5.056;2023-02-17T03:25:28;101712.97;;;8.55;100.00
49813;BME280;35706;52.100;5.056;2023-02-17T03:26:28;101703.22;;;8.57;100.00
49813;BME280;35706;52.100;5.056;2023-02-17T03:27:28;101711.06;;;8.57;100.00
49813;BME280;35706;52.100;5.056;2023-02-17T03:28:29;101709.63;;;8.53;100.00
49813;BME280;35706;52.100;5.056;2023-02-17T03:29:29;101704.81;;;8.60;100.00
49813;BME280;35706;52.100;5.056;2023-02-17T03:30:32;101678.72;;;8.58;100.00
49813;BME280;35706;52.100;5.056;2023-02-17T03:31:34;101701.66;;;8.54;100.00
49813;BME280;35706;52.100;5.056;2023-02-17T03:32:35;101691.81;;;8.58;100.00
49813;BME280;35706;52.100;5.056;2023-02-17T03:33:35;101685.34;;;8.64;100.00
49813;BME280;35706;52.100;5.056;2023-02-17T03:34:35;101678.41;;;8.63;100.00
49813;BME280;35706;52.100;5.056;2023-02-17T03:35:36;101695.06;;;8.62;100.00
49813;BME280;35706;52.100;5.056;2023-02-17T03:36:37;101688.78;;;8.64;100.00
49813;BME280;35706;52.100;5.056;2023-02-17T03:37:37;101688.69;;;8.66;100.00
49813;BME280;35706;52.100;5.056;2023-02-17T03:38:37;101684.88;;;8.70;100.00
49813;BME280;35706;52.100;5.056;2023-02-17T03:39:38;101697.38;;;8.66;100.00
49813;BME280;35706;52.100;5.056;2023-02-17T03:40:38;101685.22;;;8.65;100.00
49813;BME280;35706;52.100;5.056;2023-02-17T03:41:38;101683.31;;;8.67;100.00
49813;BME280;35706;52.100;5.056;2023-02-17T03:42:39;101690.13;;;8.70;100.00
49813;BME280;35706;52.100;5.056;2023-02-17T03:43:39;101685.03;;;8.68;100.00
49813;BME280;35706;52.100;5.056;2023-02-17T03:44:39;101687.72;;;8.67;100.00
49813;BME280;35706;52.100;5.056;2023-02-17T03:45:39;101687.22;;;8.74;100.00
49813;BME280;35706;52.100;5.056;2023-02-17T03:46:40;101689.94;;;8.73;100.00
49813;BME280;35706;52.100;5.056;2023-02-17T03:47:40;101687.09;;;8.76;100.00
49813;BME280;35706;52.100;5.056;2023-02-17T03:48:41;101694.22;;;8.74;100.00
49813;BME280;35706;52.100;5.056;2023-02-17T03:49:41;101694.13;;;8.75;100.00
49813;BME280;35706;52.100;5.056;2023-02-17T03:50:41;101692.47;;;8.74;100.00
49813;BME280;35706;52.100;5.056;2023-02-17T03:51:42;101693.22;;;8.76;100.00
49813;BME280;35706;52.100;5.056;2023-02-17T03:52:42;101697.50;;;8.77;100.00
49813;BME280;35706;52.100;5.056;2023-02-17T03:53:43;101680.72;;;8.80;100.00
49813;BME280;35706;52.100;5.056;2023-02-17T03:54:43;101684.06;;;8.82;100.00
49813;BME280;35706;52.100;5.056;2023-02-17T03:55:44;101692.25;;;8.77;100.00
49813;BME280;35706;52.100;5.056;2023-02-17T03:56:44;101689.44;;;8.81;100.00
49813;BME280;35706;52.100;5.056;2023-02-17T03:57:44;101681.56;;;8.81;100.00
49813;BME280;35706;52.100;5.056;2023-02-17T03:58:45;101690.28;;;8.81;100.00
49813;BME280;35706;52.100;5.056;2023-02-17T03:59:45;101690.19;;;8.83;100.00
49813;BME280;35706;52.100;5.056;2023-02-17T04:00:45;101689.13;;;8.85;100.00
49813;BME280;35706;52.100;5.056;2023-02-17T04:01:46;101698.78;;;8.85;100.00
49813;BME280;35706;52.100;5.056;2023-02-17T04:02:46;101694.38;;;8.85;100.00
49813;BME280;35706;52.100;5.056;2023-02-17T04:03:46;101691.84;;;8.84;100.00
49813;BME280;35706;52.100;5.056;2023-02-17T04:04:47;101697.72;;;8.87;100.00
49813;BME280;35706;52.100;5.056;2023-02-17T04:05:47;101694.16;;;8.88;100.00
49813;BME280;35706;52.100;5.056;2023-02-17T04:06:47;101692.34;;;8.89;100.00
49813;BME280;35706;52.100;5.056;2023-02-17T04:07:48;101696.66;;;8.90;100.00
49813;BME280;35706;52.100;5.056;2023-02-17T04:08:48;101690.59;;;8.89;100.00
49813;BME280;35706;52.100;5.056;2023-02-17T04:09:49;101681.56;;;8.93;100.00
49813;BME280;35706;52.100;5.056;2023-02-17T04:10:54;101686.19;;;8.90;100.00
49813;BME280;35706;52.100;5.056;2023-02-17T04:11:55;101696.44;;;8.93;100.00
49813;BME280;35706;52.100;5.056;2023-02-17T04:12:55;101690.19;;;8.95;100.00
49813;BME280;35706;52.100;5.056;2023-02-17T04:13:55;101698.97;;;8.94;100.00
49813;BME280;35706;52.100;5.056;2023-02-17T04:14:56;101709.28;;;8.98;100.00
49813;BME280;35706;52.100;5.056;2023-02-17T04:15:56;101702.44;;;8.95;100.00
49813;BME280;35706;52.100;5.056;2023-02-17T04:16:57;101689.94;;;8.99;100.00
49813;BME280;35706;52.100;5.056;2023-02-17T04:17:57;101697.72;;;9.00;100.00
49813;BME280;35706;52.100;5.056;2023-02-17T04:18:57;101703.16;;;8.97;100.00
49813;BME280;35706;52.100;5.056;2023-02-17T04:19:58;101696.91;;;9.00;100.00
49813;BME280;35706;52.100;5.056;2023-02-17T04:20:59;101702.88;;;9.02;100.00
49813;BME280;35706;52.100;5.056;2023-02-17T04:21:59;101706.31;;;9.02;100.00
49813;BME280;35706;52.100;5.056;2023-02-17T04:22:59;101696.56;;;9.04;100.00
49813;BME280;35706;52.100;5.056;2023-02-17T04:24:00;101699.38;;;9.01;100.00
49813;BME280;35706;52.100;5.056;2023-02-17T04:25:01;101687.00;;;9.03;100.00
49813;BME280;35706;52.100;5.056;2023-02-17T04:26:03;101694.78;;;9.05;100.00
49813;BME280;35706;52.100;5.056;2023-02-17T04:27:04;101707.06;;;9.04;100.00
49813;BME280;35706;52.100;5.056;2023-02-17T04:28:04;101716.69;;;9.04;100.00
49813;BME280;35706;52.100;5.056;2023-02-17T04:29:05;101714.06;;;9.04;100.00
49813;BME280;35706;52.100;5.056;2023-02-17T04:30:06;101708.81;;;9.04;100.00
49813;BME280;35706;52.100;5.056;2023-02-17T04:31:07;101689.75;;;9.02;100.00
49813;BME280;35706;52.100;5.056;2023-02-17T04:32:08;101685.97;;;9.06;100.00
49813;BME280;35706;52.100;5.056;2023-02-17T04:33:08;101685.03;;;9.07;100.00
49813;BME280;35706;52.100;5.056;2023-02-17T04:34:08;101680.72;;;9.06;100.00
49813;BME280;35706;52.100;5.056;2023-02-17T04:35:09;101680.72;;;9.06;100.00
49813;BME280;35706;52.100;5.056;2023-02-17T04:36:09;101685.97;;;9.06;100.00
49813;BME280;35706;52.100;5.056;2023-02-17T04:37:10;101691.09;;;9.07;100.00
49813;BME280;35706;52.100;5.056;2023-02-17T04:38:11;101678.81;;;9.08;100.00
49813;BME280;35706;52.100;5.056;2023-02-17T04:39:11;101685.75;;;9.09;100.00
49813;BME280;35706;52.100;5.056;2023-02-17T04:40:12;101672.66;;;9.09;100.00
49813;BME280;35706;52.100;5.056;2023-02-17T04:41:12;101668.97;;;9.11;100.00
49813;BME280;35706;52.100;5.056;2023-02-17T04:42:13;101670.94;;;9.08;100.00
49813;BME280;35706;52.100;5.056;2023-02-17T04:43:13;101679.69;;;9.08;100.00
49813;BME280;35706;52.100;5.056;2023-02-17T04:44:13;101661.00;;;9.13;100.00
49813;BME280;35706;52.100;5.056;2023-02-17T04:45:14;101672.56;;;9.10;100.00
49813;BME280;35706;52.100;5.056;2023-02-17T04:46:14;101679.47;;;9.11;100.00
49813;BME280;35706;52.100;5.056;2023-02-17T04:47:15;101663.72;;;9.11;100.00
49813;BME280;35706;52.100;5.056;2023-02-17T04:48:15;101660.91;;;9.14;100.00
49813;BME280;35706;52.100;5.056;2023-02-17T04:49:16;101671.25;;;9.16;100.00
49813;BME280;35706;52.100;5.056;2023-02-17T04:50:16;101665.28;;;9.14;100.00
49813;BME280;35706;52.100;5.056;2023-02-17T04:51:16;101674.03;;;9.14;100.00
49813;BME280;35706;52.100;5.056;2023-02-17T04:52:17;101668.66;;;9.16;100.00
49813;BME280;35706;52.100;5.056;2023-02-17T04:53:18;101674.63;;;9.18;100.00
49813;BME280;35706;52.100;5.056;2023-02-17T04:54:18;101664.34;;;9.15;100.00
49813;BME280;35706;52.100;5.056;2023-02-17T04:55:19;101664.88;;;9.20;100.00
49813;BME280;35706;52.100;5.056;2023-02-17T04:56:20;101663.28;;;9.17;100.00
49813;BME280;35706;52.100;5.056;2023-02-17T04:57:20;101661.50;;;9.18;100.00
49813;BME280;35706;52.100;5.056;2023-02-17T04:58:21;101673.69;;;9.19;100.00
49813;BME280;35706;52.100;5.056;2023-02-17T04:59:21;101677.16;;;9.20;100.00
49813;BME280;35706;52.100;5.056;2023-02-17T05:00:22;101685.00;;;9.20;100.00
49813;BME280;35706;52.100;5.056;2023-02-17T05:01:22;101687.31;;;9.24;100.00
49813;BME280;35706;52.100;5.056;2023-02-17T05:02:22;101676.00;;;9.24;100.00
49813;BME280;35706;52.100;5.056;2023-02-17T05:03:25;101674.19;;;9.24;100.00
49813;BME280;35706;52.100;5.056;2023-02-17T05:04:26;101679.34;;;9.26;100.00
49813;BME280;35706;52.100;5.056;2023-02-17T05:05:26;101690.16;;;9.21;100.00
49813;BME280;35706;52.100;5.056;2023-02-17T05:06:27;101687.31;;;9.24;100.00
49813;BME280;35706;52.100;5.056;2023-02-17T05:07:27;101689.75;;;9.27;100.00
49813;BME280;35706;52.100;5.056;2023-02-17T05:08:27;101694.03;;;9.28;100.00
49813;BME280;35706;52.100;5.056;2023-02-17T05:09:28;101693.09;;;9.29;100.00
49813;BME280;35706;52.100;5.056;2023-02-17T05:10:28;101693.94;;;9.30;100.00
49813;BME280;35706;52.100;5.056;2023-02-17T05:11:28;101697.72;;;9.26;100.00
49813;BME280;35706;52.100;5.056;2023-02-17T05:12:30;101696.75;;;9.27;100.00
49813;BME280;35706;52.100;5.056;2023-02-17T05:13:30;101695.81;;;9.28;100.00
49813;BME280;35706;52.100;5.056;2023-02-17T05:14:32;101706.22;;;9.29;100.00
49813;BME280;35706;52.100;5.056;2023-02-17T05:15:32;101695.00;;;9.27;100.00
49813;BME280;35706;52.100;5.056;2023-02-17T05:16:32;101693.84;;;9.31;100.00
49813;BME280;35706;52.100;5.056;2023-02-17T05:17:33;101700.75;;;9.32;100.00
49813;BME280;35706;52.100;5.056;2023-02-17T05:18:34;101688.59;;;9.31;100.00
49813;BME280;35706;52.100;5.056;2023-02-17T05:19:34;101688.59;;;9.31;100.00
49813;BME280;35706;52.100;5.056;2023-02-17T05:20:34;101697.38;;;9.30;100.00
49813;BME280;35706;52.100;5.056;2023-02-17T05:21:35;101684.25;;;9.30;100.00
49813;BME280;35706;52.100;5.056;2023-02-17T05:22:36;101678.09;;;9.31;100.00
49813;BME280;35706;52.100;5.056;2023-02-17T05:23:36;101680.72;;;9.31;100.00
49813;BME280;35706;52.100;5.056;2023-02-17T05:24:40;101672.84;;;9.31;100.00
49813;BME280;35706;52.100;5.056;2023-02-17T05:25:40;101693.09;;;9.29;100.00
49813;BME280;35706;52.100;5.056;2023-02-17T05:26:40;101686.16;;;9.28;100.00
49813;BME280;35706;52.100;5.056;2023-02-17T05:27:41;101680.81;;;9.30;100.00
49813;BME280;35706;52.100;5.056;2023-02-17T05:28:41;101676.41;;;9.30;100.00
49813;BME280;35706;52.100;5.056;2023-02-17T05:29:41;101687.63;;;9.32;100.00
49813;BME280;35706;52.100;5.056;2023-02-17T05:30:42;101692.88;;;9.32;100.00
49813;BME280;35706;52.100;5.056;2023-02-17T05:31:42;101690.16;;;9.34;100.00
49813;BME280;35706;52.100;5.056;2023-02-17T05:32:42;101683.94;;;9.35;100.00
49813;BME280;35706;52.100;5.056;2023-02-17T05:33:43;101692.13;;;9.30;100.00
49813;BME280;35706;52.100;5.056;2023-02-17T05:34:43;101673.56;;;9.33;100.00
49813;BME280;35706;52.100;5.056;2023-02-17T05:35:43;101681.53;;;9.32;100.00
49813;BME280;35706;52.100;5.056;2023-02-17T05:36:44;101677.97;;;9.33;100.00
49813;BME280;35706;52.100;5.056;2023-02-17T05:37:44;101654.34;;;9.33;100.00
49813;BME280;35706;52.100;5.056;2023-02-17T05:38:44;101654.25;;;9.34;100.00
49813;BME280;35706;52.100;5.056;2023-02-17T05:39:48;101663.91;;;9.34;100.00
49813;BME280;35706;52.100;5.056;2023-02-17T05:40:48;101678.91;;;9.32;100.00
49813;BME280;35706;52.100;5.056;2023-02-17T05:41:49;101687.63;;;9.32;100.00
49813;BME280;35706;52.100;5.056;2023-02-17T05:42:49;101676.06;;;9.35;100.00
49813;BME280;35706;52.100;5.056;2023-02-17T05:43:49;101675.22;;;9.34;100.00
49813;BME280;35706;52.100;5.056;2023-02-17T05:44:50;101675.34;;;9.33;100.00
49813;BME280;35706;52.100;5.056;2023-02-17T05:45:50;101725.81;;;9.36;100.00
49813;BME280;35706;52.100;5.056;2023-02-17T05:46:50;101665.72;;;9.33;100.00
49813;BME280;35706;52.100;5.056;2023-02-17T05:47:53;101663.19;;;9.32;100.00
49813;BME280;35706;52.100;5.056;2023-02-17T05:48:53;101664.09;;;9.31;100.00